SYB weather

Seal Bay Seaplane Base
Seal Bay, Alaska, United States

Public forecast

Using degrees Fahrenheit for public forecast. Weather courtesy of forecast.io.

METAR (pilot weather report)

Closest report is Kodiak Airport, 38.6 nm (71.4 km) SSW. Retrieved 2019/07/17 02:53 UTC (57 minutes ago):

PADQ 170253Z 31006KT 10SM FEW029 OVC035 15/11 A2965

TAF (pilot weather forecast)

Forecast is more than 12 hours old.

Closest forecast is Kodiak Airport, 38.6 nm (71.4 km) SSW. Retrieved 2019/07/16 00:45 UTC (1 day ago):

TAF PADQ 162342Z 1700/1724 VRB04KT P6SM VCSH SCT018 OVC035 TEMPO 1700/1703 5SM -SHRA BR BKN018 FM170600 29009KT P6SM -RA SCT010 OVC025 FM171300 31007KT P6SM SCT050 BKN100